Time;durP1;ratioP1;P1;durP2;ratioP2;P2;SDS_P1;SDS_P2;PMS_P1;PMS_P2;Temp;Humidity;BMP_temperature;BMP_pressure;BME280_temperature;BME280_humidity;BME280_pressure;Samples;Min_cycle;Max_cycle;Signal;HPM_P1;HPM_P2
2021/01/02 00:00:06;;;;;;;32.70;16.27;;;;;;;;;;5084160;28;20020;-49
2021/01/02 00:02:46;;;;;;;31.00;16.90;;;;;;;;;;5083790;28;20081;-50
2021/01/02 00:05:13;;;;;;;28.60;15.23;;;;;;;;;;5083647;28;20103;-50
2021/01/02 00:07:58;;;;;;;29.05;15.57;;;;;;;;;;5084237;28;20028;-53
2021/01/02 00:10:27;;;;;;;30.60;16.13;;;;;;;;;;5082273;28;20032;-50
2021/01/02 00:13:06;;;;;;;29.58;16.30;;;;;;;;;;5082611;28;20442;-50
2021/01/02 00:15:53;;;;;;;31.95;16.90;;;;;;;;;;5084378;28;20028;-50
2021/01/02 00:18:45;;;;;;;28.33;16.80;;;;;;;;;;5083604;28;20063;-50
2021/01/02 00:21:17;;;;;;;23.95;14.38;;;;;;;;;;5081837;28;20028;-50
2021/01/02 00:23:46;;;;;;;23.60;13.52;;;;;;;;;;5084248;28;20077;-53
2021/01/02 00:26:30;;;;;;;22.23;14.05;;;;;;;;;;5082036;28;20537;-50
2021/01/02 00:28:57;;;;;;;25.05;13.85;;;;;;;;;;5083333;28;20099;-48
2021/01/02 00:31:37;;;;;;;19.30;11.05;;;;;;;;;;5083687;28;20034;-51
2021/01/02 00:34:22;;;;;;;16.67;9.98;;;;;;;;;;5083018;28;20113;-49
2021/01/02 00:36:56;;;;;;;20.50;11.30;;;;;;;;;;5087251;28;20031;-49
2021/01/02 00:39:35;;;;;;;16.77;10.63;;;;;;;;;;5087583;28;20403;-53
2021/01/02 00:42:03;;;;;;;17.70;10.45;;;;;;;;;;5080213;28;20029;-49
2021/01/02 00:44:32;;;;;;;20.98;11.93;;;;;;;;;;5078858;28;20028;-53
2021/01/02 00:46:59;;;;;;;19.25;10.57;;;;;;;;;;5085915;28;20032;-50
2021/01/02 00:49:28;;;;;;;18.92;11.30;;;;;;;;;;5086741;28;20118;-51
2021/01/02 00:52:02;;;;;;;18.60;11.15;;;;;;;;;;5084501;28;20035;-52
2021/01/02 00:54:35;;;;;;;19.17;11.32;;;;;;;;;;5074230;28;20097;-52
2021/01/02 00:57:02;;;;;;;17.38;10.50;;;;;;;;;;5082039;28;20026;-51
2021/01/02 00:59:37;;;;;;;16.92;10.20;;;;;;;;;;5088298;28;20035;-49
2021/01/02 01:02:04;;;;;;;20.42;12.05;;;;;;;;;;5069783;28;20021;-50
2021/01/02 01:04:38;;;;;;;18.13;10.63;;;;;;;;;;5080464;28;20035;-48
2021/01/02 01:07:05;;;;;;;19.75;12.15;;;;;;;;;;5083280;28;20510;-48
2021/01/02 01:09:36;;;;;;;25.65;13.68;;;;;;;;;;5084059;28;20401;-47
2021/01/02 01:12:02;;;;;;;21.88;12.65;;;;;;;;;;5085414;28;20188;-48
2021/01/02 01:14:30;;;;;;;19.90;12.10;;;;;;;;;;5082721;28;20360;-50
2021/01/02 01:16:58;;;;;;;22.45;12.20;;;;;;;;;;5066834;28;20036;-48
2021/01/02 01:19:28;;;;;;;19.25;11.35;;;;;;;;;;5083894;28;20024;-50
2021/01/02 01:21:57;;;;;;;23.73;13.02;;;;;;;;;;5085535;28;20584;-48
2021/01/02 01:24:24;;;;;;;23.60;13.55;;;;;;;;;;5087801;28;20582;-50
2021/01/02 01:27:14;;;;;;;24.10;13.35;;;;;;;;;;5086896;28;20113;-48
2021/01/02 01:29:50;;;;;;;21.83;13.07;;;;;;;;;;5087093;28;20371;-47
2021/01/02 01:32:20;;;;;;;19.50;11.63;;;;;;;;;;5075272;28;20505;-49
2021/01/02 01:34:47;;;;;;;20.98;11.57;;;;;;;;;;5086942;28;20032;-48
2021/01/02 01:37:15;;;;;;;19.13;10.88;;;;;;;;;;5086995;28;20035;-51
2021/01/02 01:39:45;;;;;;;15.65;9.15;;;;;;;;;;5087076;28;20020;-48
2021/01/02 01:42:13;;;;;;;18.92;10.55;;;;;;;;;;5085385;28;20024;-49
2021/01/02 01:44:51;;;;;;;22.65;12.38;;;;;;;;;;5085196;28;20036;-50
2021/01/02 01:47:18;;;;;;;21.50;12.00;;;;;;;;;;5080599;28;20090;-48
2021/01/02 01:49:44;;;;;;;20.75;12.38;;;;;;;;;;5066568;28;20032;-53
2021/01/02 01:52:14;;;;;;;18.92;10.70;;;;;;;;;;5074682;28;20026;-50
2021/01/02 01:54:52;;;;;;;16.88;9.85;;;;;;;;;;5086645;28;20444;-51
2021/01/02 01:57:27;;;;;;;23.02;11.80;;;;;;;;;;5077506;28;20426;-52
2021/01/02 01:59:59;;;;;;;18.92;10.68;;;;;;;;;;5066281;28;20020;-48
2021/01/02 02:02:45;;;;;;;15.18;9.40;;;;;;;;;;5080346;28;20524;-52
2021/01/02 02:05:12;;;;;;;23.02;12.13;;;;;;;;;;5066115;28;20545;-51
2021/01/02 02:07:39;;;;;;;19.95;10.77;;;;;;;;;;5070664;28;20448;-51
2021/01/02 02:10:05;;;;;;;18.75;10.15;;;;;;;;;;5086370;28;20093;-50
2021/01/02 02:12:33;;;;;;;24.77;13.30;;;;;;;;;;5084707;28;20041;-51
2021/01/02 02:14:59;;;;;;;22.77;12.82;;;;;;;;;;5086660;28;20036;-49
2021/01/02 02:17:34;;;;;;;24.88;12.18;;;;;;;;;;5084203;28;20069;-49
2021/01/02 02:20:07;;;;;;;24.73;13.38;;;;;;;;;;5086602;28;20506;-50
2021/01/02 02:22:37;;;;;;;19.65;11.15;;;;;;;;;;5084614;28;20016;-51
2021/01/02 02:25:04;;;;;;;20.83;10.70;;;;;;;;;;5086290;28;20039;-49
2021/01/02 02:27:30;;;;;;;22.35;12.80;;;;;;;;;;5083905;28;20088;-49
2021/01/02 02:30:15;;;;;;;24.73;13.55;;;;;;;;;;5084900;28;20447;-52
2021/01/02 02:32:41;;;;;;;24.92;13.43;;;;;;;;;;5085852;28;20085;-50
2021/01/02 02:35:33;;;;;;;21.65;12.00;;;;;;;;;;5084729;28;20028;-49
2021/01/02 02:37:59;;;;;;;22.10;11.77;;;;;;;;;;5071726;28;20085;-49
2021/01/02 02:40:25;;;;;;;23.60;11.88;;;;;;;;;;5084914;28;20028;-51
2021/01/02 02:42:56;;;;;;;20.73;11.80;;;;;;;;;;5084838;28;20024;-50
2021/01/02 02:45:23;;;;;;;22.35;12.48;;;;;;;;;;5084884;28;20115;-52
2021/01/02 02:47:52;;;;;;;22.92;13.20;;;;;;;;;;5083733;28;20123;-50
2021/01/02 02:50:19;;;;;;;25.50;14.52;;;;;;;;;;5084979;28;20038;-52
2021/01/02 02:52:47;;;;;;;21.27;11.55;;;;;;;;;;5079361;28;20024;-50
2021/01/02 02:55:14;;;;;;;21.58;12.60;;;;;;;;;;5085450;28;20031;-52
2021/01/02 02:57:46;;;;;;;18.15;10.82;;;;;;;;;;5084260;28;20024;-54
2021/01/02 03:00:12;;;;;;;19.13;11.63;;;;;;;;;;5067849;28;20035;-53
2021/01/02 03:02:40;;;;;;;22.65;13.15;;;;;;;;;;5064902;28;20024;-51
2021/01/02 03:05:10;;;;;;;19.33;10.82;;;;;;;;;;5067009;28;20506;-53
2021/01/02 03:07:41;;;;;;;18.10;10.55;;;;;;;;;;5083912;28;20023;-53
2021/01/02 03:10:07;;;;;;;18.40;10.27;;;;;;;;;;5085041;28;20056;-52
2021/01/02 03:12:39;;;;;;;22.65;12.10;;;;;;;;;;5083746;28;20059;-51
2021/01/02 03:15:05;;;;;;;24.80;13.48;;;;;;;;;;5084202;28;20040;-53
2021/01/02 03:17:32;;;;;;;26.00;13.18;;;;;;;;;;5084988;28;20027;-50
2021/01/02 03:19:58;;;;;;;21.83;11.70;;;;;;;;;;5083412;28;20110;-49
2021/01/02 03:22:24;;;;;;;21.83;11.88;;;;;;;;;;5084338;28;20111;-52
2021/01/02 03:24:50;;;;;;;22.98;12.85;;;;;;;;;;5084795;28;20482;-50
2021/01/02 03:27:16;;;;;;;24.88;12.77;;;;;;;;;;5084049;28;20024;-53
2021/01/02 03:29:43;;;;;;;25.85;13.55;;;;;;;;;;5083751;28;20520;-52
2021/01/02 03:32:09;;;;;;;23.30;12.30;;;;;;;;;;5084344;28;20107;-53
2021/01/02 03:34:38;;;;;;;24.50;12.70;;;;;;;;;;5084843;28;20119;-48
2021/01/02 03:37:04;;;;;;;24.92;13.23;;;;;;;;;;5081101;28;20044;-49
2021/01/02 03:39:30;;;;;;;26.35;13.07;;;;;;;;;;5078770;28;20081;-49
2021/01/02 03:41:56;;;;;;;25.00;12.68;;;;;;;;;;5083221;28;20087;-52
2021/01/02 03:44:22;;;;;;;22.13;12.02;;;;;;;;;;5082831;28;20036;-52
2021/01/02 03:46:48;;;;;;;19.88;11.02;;;;;;;;;;5083910;28;20486;-53
2021/01/02 03:49:14;;;;;;;19.60;9.70;;;;;;;;;;5082971;28;20134;-53
2021/01/02 03:51:40;;;;;;;14.27;8.77;;;;;;;;;;5084554;28;20028;-52
2021/01/02 03:54:06;;;;;;;18.65;10.45;;;;;;;;;;5067540;28;20040;-50
2021/01/02 03:56:32;;;;;;;17.10;10.20;;;;;;;;;;5072855;28;20077;-50
2021/01/02 03:58:59;;;;;;;21.48;10.93;;;;;;;;;;5083819;28;20135;-52
2021/01/02 04:01:25;;;;;;;22.30;12.43;;;;;;;;;;5083844;28;20396;-49
2021/01/02 04:03:51;;;;;;;22.30;12.10;;;;;;;;;;5082713;28;20020;-52
2021/01/02 04:06:24;;;;;;;23.60;13.68;;;;;;;;;;5084608;28;20028;-52
2021/01/02 04:08:50;;;;;;;26.33;14.15;;;;;;;;;;5082613;28;20046;-49
2021/01/02 04:11:16;;;;;;;21.33;10.98;;;;;;;;;;5074620;28;20029;-49
2021/01/02 04:13:42;;;;;;;21.02;10.93;;;;;;;;;;5068026;28;20623;-52
2021/01/02 04:16:08;;;;;;;24.13;12.63;;;;;;;;;;5067471;28;20042;-49
2021/01/02 04:18:34;;;;;;;24.02;12.43;;;;;;;;;;5068245;28;20166;-52
2021/01/02 04:21:00;;;;;;;26.65;13.23;;;;;;;;;;5068562;28;20026;-51
2021/01/02 04:23:26;;;;;;;21.80;12.35;;;;;;;;;;5082396;28;20028;-49
2021/01/02 04:25:52;;;;;;;21.20;10.70;;;;;;;;;;5087730;28;20024;-49
2021/01/02 04:28:18;;;;;;;20.48;11.70;;;;;;;;;;5088436;28;20081;-52
2021/01/02 04:30:44;;;;;;;22.17;11.15;;;;;;;;;;5087646;28;20484;-49
2021/01/02 04:33:10;;;;;;;17.42;9.52;;;;;;;;;;5087634;28;20040;-51
2021/01/02 04:35:36;;;;;;;17.10;9.52;;;;;;;;;;5086550;28;20071;-50
2021/01/02 04:38:03;;;;;;;16.98;9.60;;;;;;;;;;5088730;28;20414;-49
2021/01/02 04:40:30;;;;;;;15.20;9.00;;;;;;;;;;5088977;28;20099;-50
2021/01/02 04:42:56;;;;;;;16.45;8.57;;;;;;;;;;5086550;28;20028;-53
2021/01/02 04:45:24;;;;;;;18.00;9.25;;;;;;;;;;5085538;28;20024;-52
2021/01/02 04:47:52;;;;;;;16.05;8.82;;;;;;;;;;5072909;28;20042;-49
2021/01/02 04:50:18;;;;;;;20.63;11.40;;;;;;;;;;5075190;28;20469;-50
2021/01/02 04:52:46;;;;;;;18.67;9.60;;;;;;;;;;5087719;28;20059;-51
2021/01/02 04:55:17;;;;;;;22.55;9.95;;;;;;;;;;5067277;28;20035;-52
2021/01/02 04:57:46;;;;;;;34.22;13.52;;;;;;;;;;5079147;28;20028;-53
2021/01/02 05:00:13;;;;;;;28.23;12.32;;;;;;;;;;5087689;28;20443;-50
2021/01/02 05:02:39;;;;;;;32.53;13.48;;;;;;;;;;5075593;28;20044;-50
2021/01/02 05:05:06;;;;;;;35.05;14.07;;;;;;;;;;5082677;28;20042;-49
2021/01/02 05:07:34;;;;;;;36.88;14.70;;;;;;;;;;5077328;28;20086;-48
2021/01/02 05:10:01;;;;;;;33.30;14.40;;;;;;;;;;5067800;28;20104;-48
2021/01/02 05:12:28;;;;;;;31.25;13.75;;;;;;;;;;5069822;28;20028;-48
2021/01/02 05:14:58;;;;;;;29.50;12.80;;;;;;;;;;5086375;28;20114;-48
2021/01/02 05:17:28;;;;;;;29.15;13.98;;;;;;;;;;5086847;28;20330;-48
2021/01/02 05:20:02;;;;;;;31.08;14.32;;;;;;;;;;5085773;28;20024;-49
2021/01/02 05:22:28;;;;;;;24.52;12.57;;;;;;;;;;5085848;28;20262;-51
2021/01/02 05:25:10;;;;;;;26.17;12.70;;;;;;;;;;5087060;28;20036;-52
2021/01/02 05:27:38;;;;;;;22.23;11.50;;;;;;;;;;5087251;28;20072;-50
2021/01/02 05:30:19;;;;;;;22.92;11.65;;;;;;;;;;5086927;28;20035;-47
2021/01/02 05:32:54;;;;;;;21.27;10.27;;;;;;;;;;5086003;28;20143;-52
2021/01/02 05:35:21;;;;;;;25.17;11.98;;;;;;;;;;5087396;28;20398;-52
2021/01/02 05:37:48;;;;;;;19.50;10.57;;;;;;;;;;5086789;28;20375;-53
2021/01/02 05:40:31;;;;;;;23.48;11.23;;;;;;;;;;5086757;28;20051;-52
2021/01/02 05:42:57;;;;;;;24.45;11.52;;;;;;;;;;5085174;28;20409;-50
2021/01/02 05:45:27;;;;;;;25.20;13.43;;;;;;;;;;5086715;28;20443;-53
2021/01/02 05:47:53;;;;;;;23.05;11.75;;;;;;;;;;5085583;28;20040;-50
2021/01/02 05:50:20;;;;;;;20.30;10.32;;;;;;;;;;5086836;28;20366;-49
2021/01/02 05:52:50;;;;;;;21.77;11.13;;;;;;;;;;5070084;28;20043;-49
2021/01/02 05:55:28;;;;;;;24.77;12.52;;;;;;;;;;5066687;28;20032;-50
2021/01/02 05:57:56;;;;;;;26.80;12.75;;;;;;;;;;5066168;28;20523;-52
2021/01/02 06:00:24;;;;;;;28.17;13.85;;;;;;;;;;5065883;28;20034;-48
2021/01/02 06:02:50;;;;;;;24.38;12.27;;;;;;;;;;5066556;28;20396;-53
2021/01/02 06:05:16;;;;;;;33.30;15.93;;;;;;;;;;5069300;28;20034;-52
2021/01/02 06:07:48;;;;;;;27.35;14.20;;;;;;;;;;5092377;28;20507;-49
2021/01/02 06:10:14;;;;;;;26.83;13.57;;;;;;;;;;5086064;28;20463;-50
2021/01/02 06:12:41;;;;;;;33.88;15.68;;;;;;;;;;5085523;28;20091;-51
2021/01/02 06:15:07;;;;;;;38.50;18.88;;;;;;;;;;5085698;28;20051;-52
2021/01/02 06:17:35;;;;;;;38.15;18.38;;;;;;;;;;5077232;28;20419;-53
2021/01/02 06:20:04;;;;;;;33.70;16.50;;;;;;;;;;5065773;28;20027;-49
2021/01/02 06:22:31;;;;;;;38.95;17.10;;;;;;;;;;5065086;28;20027;-51
2021/01/02 06:24:58;;;;;;;31.35;15.35;;;;;;;;;;5067183;28;20025;-49
2021/01/02 06:27:24;;;;;;;29.25;14.40;;;;;;;;;;5066388;28;20445;-50
2021/01/02 06:29:54;;;;;;;27.35;13.70;;;;;;;;;;5066152;28;20036;-50
2021/01/02 06:32:21;;;;;;;28.38;14.05;;;;;;;;;;5067172;28;20028;-53
2021/01/02 06:35:05;;;;;;;24.42;12.98;;;;;;;;;;5066985;28;20024;-50
2021/01/02 06:37:51;;;;;;;28.75;14.10;;;;;;;;;;5066321;28;20029;-51
2021/01/02 06:40:27;;;;;;;26.75;14.30;;;;;;;;;;5066726;28;20017;-51
2021/01/02 06:42:57;;;;;;;27.27;13.75;;;;;;;;;;5065910;28;20498;-51
2021/01/02 06:45:35;;;;;;;25.90;12.55;;;;;;;;;;5066711;28;20474;-52
2021/01/02 06:48:16;;;;;;;24.80;13.55;;;;;;;;;;5080145;28;20047;-49
2021/01/02 06:50:42;;;;;;;28.95;14.82;;;;;;;;;;5085364;28;20032;-50
2021/01/02 06:53:21;;;;;;;30.23;15.68;;;;;;;;;;5085568;28;20585;-50
2021/01/02 06:55:57;;;;;;;24.88;12.80;;;;;;;;;;5086278;28;20028;-53
2021/01/02 06:58:23;;;;;;;27.27;13.60;;;;;;;;;;5083205;28;20476;-49
2021/01/02 07:00:49;;;;;;;24.95;14.63;;;;;;;;;;5085521;28;20080;-52
2021/01/02 07:03:34;;;;;;;26.13;12.75;;;;;;;;;;5086657;28;20024;-53
2021/01/02 07:06:00;;;;;;;28.25;13.63;;;;;;;;;;5086073;28;20023;-50
2021/01/02 07:08:45;;;;;;;31.70;16.38;;;;;;;;;;5085843;28;20035;-51
2021/01/02 07:11:20;;;;;;;28.40;15.35;;;;;;;;;;5086062;28;20055;-50
2021/01/02 07:13:46;;;;;;;26.40;13.05;;;;;;;;;;5084904;28;20032;-50
2021/01/02 07:16:30;;;;;;;29.63;14.57;;;;;;;;;;5086478;28;20557;-49
2021/01/02 07:18:56;;;;;;;;;;;;;;;;;;5067183;28;20036;-50
2021/01/02 07:21:33;;;;;;;32.47;16.02;;;;;;;;;;5066201;28;20371;-51
2021/01/02 07:24:18;;;;;;;31.52;14.80;;;;;;;;;;5076121;28;20442;-52
2021/01/02 07:26:45;;;;;;;32.20;16.02;;;;;;;;;;5085374;28;20054;-50
2021/01/02 07:29:18;;;;;;;34.00;16.98;;;;;;;;;;5086216;28;20164;-49
2021/01/02 07:31:44;;;;;;;33.45;16.52;;;;;;;;;;5086725;28;20051;-53
2021/01/02 07:34:17;;;;;;;35.47;17.40;;;;;;;;;;5084568;28;20024;-51
2021/01/02 07:36:44;;;;;;;35.95;17.65;;;;;;;;;;5086736;28;20053;-52
2021/01/02 07:39:10;;;;;;;32.33;16.45;;;;;;;;;;5086224;28;20020;-50
2021/01/02 07:41:36;;;;;;;27.80;14.00;;;;;;;;;;5081791;28;20049;-50
2021/01/02 07:44:04;;;;;;;29.90;14.90;;;;;;;;;;5065243;28;20033;-49
2021/01/02 07:46:32;;;;;;;50.88;22.77;;;;;;;;;;5065802;28;20032;-52
2021/01/02 07:48:58;;;;;;;43.70;19.55;;;;;;;;;;5066421;28;20039;-53
2021/01/02 07:51:25;;;;;;;41.50;18.58;;;;;;;;;;5067103;28;20052;-53
2021/01/02 07:53:54;;;;;;;48.88;20.60;;;;;;;;;;5064151;28;20025;-52
2021/01/02 07:56:37;;;;;;;46.63;19.63;;;;;;;;;;5066064;28;20108;-52
2021/01/02 07:59:25;;;;;;;46.95;20.38;;;;;;;;;;5076564;28;20111;-51
2021/01/02 08:01:55;;;;;;;39.60;19.30;;;;;;;;;;5084349;28;20103;-50
2021/01/02 08:04:21;;;;;;;36.60;17.63;;;;;;;;;;5085998;28;20031;-49
2021/01/02 08:06:50;;;;;;;36.58;18.25;;;;;;;;;;5086206;28;20438;-51
2021/01/02 08:09:16;;;;;;;38.70;18.15;;;;;;;;;;5085269;28;20043;-53
2021/01/02 08:11:55;;;;;;;36.20;16.50;;;;;;;;;;5085492;28;20039;-50
2021/01/02 08:14:22;;;;;;;35.45;18.38;;;;;;;;;;5083632;28;20035;-50
2021/01/02 08:17:00;;;;;;;36.67;17.27;;;;;;;;;;5086188;28;20474;-52
2021/01/02 08:19:26;;;;;;;37.42;18.45;;;;;;;;;;5082380;28;20027;-50
2021/01/02 08:21:52;;;;;;;37.65;17.73;;;;;;;;;;5085728;28;20064;-51
2021/01/02 08:24:19;;;;;;;34.38;16.95;;;;;;;;;;5082573;28;20020;-53
2021/01/02 08:26:46;;;;;;;32.00;15.45;;;;;;;;;;5069883;28;20036;-49
2021/01/02 08:29:12;;;;;;;25.45;13.13;;;;;;;;;;5075188;28;20027;-49
2021/01/02 08:31:41;;;;;;;33.88;17.73;;;;;;;;;;5085548;28;20172;-54
2021/01/02 08:34:10;;;;;;;38.67;18.85;;;;;;;;;;5079122;28;20028;-51
2021/01/02 08:36:45;;;;;;;35.13;16.67;;;;;;;;;;5073980;28;20024;-52
2021/01/02 08:39:18;;;;;;;33.13;16.40;;;;;;;;;;5066460;28;20473;-52
2021/01/02 08:41:48;;;;;;;38.10;18.07;;;;;;;;;;5065777;28;20032;-51
2021/01/02 08:44:20;;;;;;;33.20;16.70;;;;;;;;;;5066185;28;20301;-54
2021/01/02 08:46:47;;;;;;;29.95;14.40;;;;;;;;;;5064785;28;20108;-54
2021/01/02 08:49:25;;;;;;;31.58;14.82;;;;;;;;;;5067702;28;20512;-52
2021/01/02 08:51:51;;;;;;;33.38;16.42;;;;;;;;;;5081500;28;20028;-49
2021/01/02 08:54:17;;;;;;;29.33;14.57;;;;;;;;;;5084844;28;20653;-52
2021/01/02 08:56:44;;;;;;;28.52;13.93;;;;;;;;;;5083737;28;20031;-53
2021/01/02 08:59:13;;;;;;;30.85;15.23;;;;;;;;;;5089055;28;20024;-54
2021/01/02 09:01:39;;;;;;;27.05;12.98;;;;;;;;;;5089361;28;20024;-53
2021/01/02 09:04:14;;;;;;;27.10;13.60;;;;;;;;;;5087024;28;20566;-52
2021/01/02 09:06:41;;;;;;;21.30;10.85;;;;;;;;;;5089365;28;20115;-49
2021/01/02 09:09:07;;;;;;;24.45;11.77;;;;;;;;;;5083837;28;20637;-51
2021/01/02 09:11:46;;;;;;;22.73;10.95;;;;;;;;;;5067608;28;20567;-52
2021/01/02 09:14:12;;;;;;;21.48;11.52;;;;;;;;;;5086750;28;20024;-49
2021/01/02 09:16:39;;;;;;;20.67;10.80;;;;;;;;;;5084998;28;20049;-52
2021/01/02 09:19:05;;;;;;;24.50;13.02;;;;;;;;;;5086527;28;20059;-50
2021/01/02 09:21:32;;;;;;;25.92;13.82;;;;;;;;;;5087648;28;20103;-48
2021/01/02 09:23:58;;;;;;;28.00;13.98;;;;;;;;;;5085306;28;20035;-52
2021/01/02 09:26:24;;;;;;;24.52;12.82;;;;;;;;;;5087038;28;20031;-50
2021/01/02 09:28:50;;;;;;;29.88;14.30;;;;;;;;;;5084262;28;20093;-50
2021/01/02 09:31:17;;;;;;;28.13;14.90;;;;;;;;;;5088477;28;20032;-50
2021/01/02 09:33:43;;;;;;;32.05;16.75;;;;;;;;;;5089338;28;20032;-49
2021/01/02 09:36:12;;;;;;;30.77;15.35;;;;;;;;;;5089644;28;20032;-53
2021/01/02 09:38:38;;;;;;;37.80;17.00;;;;;;;;;;5086669;28;20516;-49
2021/01/02 09:41:04;;;;;;;37.70;16.20;;;;;;;;;;5072829;28;20103;-50
2021/01/02 09:43:30;;;;;;;29.10;14.82;;;;;;;;;;5067397;28;20112;-52
2021/01/02 09:45:56;;;;;;;27.13;12.93;;;;;;;;;;5086232;28;20036;-49
2021/01/02 09:48:22;;;;;;;31.17;14.90;;;;;;;;;;5087848;28;20039;-50
2021/01/02 09:50:50;;;;;;;44.55;19.77;;;;;;;;;;5087557;28;20032;-52
2021/01/02 09:53:16;;;;;;;40.35;18.33;;;;;;;;;;5086740;28;20028;-50
2021/01/02 09:55:42;;;;;;;55.28;20.92;;;;;;;;;;5086612;28;20052;-51
2021/01/02 09:58:10;;;;;;;48.00;19.52;;;;;;;;;;5087752;28;20494;-49
2021/01/02 10:00:37;;;;;;;56.53;22.20;;;;;;;;;;5086636;28;20027;-49
2021/01/02 10:03:04;;;;;;;67.20;24.10;;;;;;;;;;5085030;28;20490;-54
2021/01/02 10:05:30;;;;;;;65.25;22.90;;;;;;;;;;5085557;28;20528;-51
2021/01/02 10:07:56;;;;;;;58.78;23.42;;;;;;;;;;5084852;28;20451;-50
2021/01/02 10:10:22;;;;;;;52.42;21.45;;;;;;;;;;5084924;28;20032;-53
2021/01/02 10:12:49;;;;;;;41.70;19.85;;;;;;;;;;5087400;28;20036;-52
2021/01/02 10:15:15;;;;;;;37.72;16.98;;;;;;;;;;5088721;28;20032;-50
2021/01/02 10:17:41;;;;;;;36.92;17.83;;;;;;;;;;5087796;28;20122;-53
2021/01/02 10:20:08;;;;;;;37.45;17.20;;;;;;;;;;5084061;28;20035;-52
2021/01/02 10:22:35;;;;;;;38.15;16.95;;;;;;;;;;5080829;28;20381;-52
2021/01/02 10:25:02;;;;;;;32.42;16.05;;;;;;;;;;5086252;28;20078;-51
2021/01/02 10:27:28;;;;;;;34.90;18.50;;;;;;;;;;5086384;28;20092;-50
2021/01/02 10:29:55;;;;;;;35.58;17.17;;;;;;;;;;5085847;28;20031;-50
2021/01/02 10:32:23;;;;;;;32.95;16.77;;;;;;;;;;5079213;28;20039;-49
2021/01/02 10:34:49;;;;;;;34.67;17.05;;;;;;;;;;5086509;28;20123;-49
2021/01/02 10:37:15;;;;;;;32.15;15.25;;;;;;;;;;5085977;28;20481;-51
2021/01/02 10:39:42;;;;;;;39.67;19.73;;;;;;;;;;5082749;28;20136;-49
2021/01/02 10:42:10;;;;;;;37.72;19.25;;;;;;;;;;5075302;28;20379;-50
2021/01/02 10:44:36;;;;;;;33.65;17.10;;;;;;;;;;5066284;28;20054;-53
2021/01/02 10:47:02;;;;;;;31.75;16.40;;;;;;;;;;5075120;28;20409;-53
2021/01/02 10:49:29;;;;;;;32.80;16.92;;;;;;;;;;5080298;28;20377;-53
2021/01/02 10:51:56;;;;;;;36.20;17.27;;;;;;;;;;5083026;28;20047;-49
2021/01/02 10:54:23;;;;;;;35.33;19.23;;;;;;;;;;5085101;28;20097;-51
2021/01/02 10:56:53;;;;;;;32.22;16.63;;;;;;;;;;5084490;28;20109;-53
2021/01/02 10:59:23;;;;;;;38.40;18.42;;;;;;;;;;5084842;28;20016;-55
2021/01/02 11:01:51;;;;;;;35.25;18.15;;;;;;;;;;5087308;28;20375;-53
2021/01/02 11:04:19;;;;;;;30.52;16.33;;;;;;;;;;5087100;28;20502;-53
2021/01/02 11:06:46;;;;;;;39.47;19.27;;;;;;;;;;5078154;28;20039;-54
2021/01/02 11:09:14;;;;;;;32.22;16.98;;;;;;;;;;5067739;28;20406;-51
2021/01/02 11:11:42;;;;;;;34.25;15.90;;;;;;;;;;5067369;28;20036;-53
2021/01/02 11:14:08;;;;;;;31.42;15.73;;;;;;;;;;5084551;28;20031;-53
2021/01/02 11:16:42;;;;;;;34.30;17.55;;;;;;;;;;5087353;28;20051;-52
2021/01/02 11:19:12;;;;;;;30.80;15.23;;;;;;;;;;5086799;28;20069;-50
2021/01/02 11:21:39;;;;;;;27.90;14.75;;;;;;;;;;5087343;28;20028;-53
2021/01/02 11:24:05;;;;;;;36.42;17.90;;;;;;;;;;5086692;28;20510;-51
2021/01/02 11:26:31;;;;;;;32.05;16.05;;;;;;;;;;5087499;28;20048;-53
2021/01/02 11:28:57;;;;;;;30.98;16.65;;;;;;;;;;5086966;28;20481;-49
2021/01/02 11:31:33;;;;;;;38.65;19.17;;;;;;;;;;5086165;28;20028;-53
2021/01/02 11:33:59;;;;;;;34.70;16.88;;;;;;;;;;5082669;28;20067;-51
2021/01/02 11:36:26;;;;;;;32.95;15.63;;;;;;;;;;5075814;28;20032;-50
2021/01/02 11:38:52;;;;;;;33.70;16.38;;;;;;;;;;5087016;28;20024;-54
2021/01/02 11:41:19;;;;;;;33.17;15.80;;;;;;;;;;5086065;28;20617;-54
2021/01/02 11:43:45;;;;;;;33.88;16.50;;;;;;;;;;5078098;28;20036;-54
2021/01/02 11:46:11;;;;;;;32.83;17.05;;;;;;;;;;5083805;28;20024;-54
2021/01/02 11:48:40;;;;;;;30.75;16.63;;;;;;;;;;5078086;28;20032;-52
2021/01/02 11:51:11;;;;;;;32.08;16.23;;;;;;;;;;5084183;28;20034;-52
2021/01/02 11:53:38;;;;;;;33.20;16.50;;;;;;;;;;5082332;28;20036;-51
2021/01/02 11:56:04;;;;;;;29.73;14.68;;;;;;;;;;5085878;28;20054;-52
2021/01/02 11:58:30;;;;;;;29.95;15.50;;;;;;;;;;5085657;28;20486;-52
2021/01/02 12:00:56;;;;;;;28.30;15.00;;;;;;;;;;5085526;28;20559;-54
2021/01/02 12:03:22;;;;;;;28.08;14.07;;;;;;;;;;5084665;28;20024;-50
2021/01/02 12:05:48;;;;;;;28.48;13.90;;;;;;;;;;5085659;28;20020;-52
2021/01/02 12:08:14;;;;;;;28.48;13.95;;;;;;;;;;5084880;28;20378;-50
2021/01/02 12:10:40;;;;;;;32.55;14.77;;;;;;;;;;5086139;28;20047;-53
2021/01/02 12:13:06;;;;;;;29.20;14.63;;;;;;;;;;5084471;28;20084;-53
2021/01/02 12:15:32;;;;;;;30.83;16.58;;;;;;;;;;5083170;28;20507;-53
2021/01/02 12:17:58;;;;;;;29.40;15.52;;;;;;;;;;5072032;28;20032;-51
2021/01/02 12:20:24;;;;;;;36.95;17.35;;;;;;;;;;5082405;28;20016;-52
2021/01/02 12:22:50;;;;;;;29.70;14.70;;;;;;;;;;5085833;28;20028;-53
2021/01/02 12:25:17;;;;;;;25.42;13.35;;;;;;;;;;5084572;28;20061;-53
2021/01/02 12:27:43;;;;;;;27.85;13.55;;;;;;;;;;5083801;28;20547;-53
2021/01/02 12:30:09;;;;;;;31.73;15.57;;;;;;;;;;5084215;28;20043;-49
2021/01/02 12:32:35;;;;;;;30.35;16.30;;;;;;;;;;5089072;28;20089;-54
2021/01/02 12:35:01;;;;;;;29.55;15.20;;;;;;;;;;5088374;28;20506;-53
2021/01/02 12:37:27;;;;;;;25.75;14.63;;;;;;;;;;5089948;28;20591;-49
2021/01/02 12:39:53;;;;;;;31.23;15.98;;;;;;;;;;5089584;28;20016;-52
2021/01/02 12:42:19;;;;;;;29.65;15.35;;;;;;;;;;5089104;28;20028;-50
2021/01/02 12:44:49;;;;;;;32.00;15.70;;;;;;;;;;5089337;28;20032;-51
2021/01/02 12:47:16;;;;;;;28.92;15.00;;;;;;;;;;5088877;28;20036;-53
2021/01/02 12:49:44;;;;;;;31.50;16.92;;;;;;;;;;5088497;28;20043;-53
2021/01/02 12:52:10;;;;;;;32.38;16.25;;;;;;;;;;5089823;28;20036;-54
2021/01/02 12:54:36;;;;;;;33.03;15.75;;;;;;;;;;5080841;28;20029;-52
2021/01/02 12:57:03;;;;;;;47.20;23.00;;;;;;;;;;5068292;28;20597;-53
2021/01/02 12:59:32;;;;;;;35.70;18.85;;;;;;;;;;5083548;28;20042;-53
2021/01/02 13:01:58;;;;;;;31.67;17.33;;;;;;;;;;5087669;28;20031;-53
2021/01/02 13:04:25;;;;;;;32.63;16.55;;;;;;;;;;5087361;28;20028;-54
2021/01/02 13:06:52;;;;;;;30.10;14.82;;;;;;;;;;5088337;28;20076;-51
2021/01/02 13:09:18;;;;;;;30.05;15.20;;;;;;;;;;5088730;28;20093;-55
2021/01/02 13:11:46;;;;;;;28.67;14.00;;;;;;;;;;5086036;28;20063;-53
2021/01/02 13:14:12;;;;;;;37.70;18.13;;;;;;;;;;5089067;28;20055;-54
2021/01/02 13:16:38;;;;;;;39.65;19.33;;;;;;;;;;5088298;28;20016;-53
2021/01/02 13:19:04;;;;;;;36.55;17.90;;;;;;;;;;5088707;28;20049;-54
2021/01/02 13:21:30;;;;;;;35.40;16.58;;;;;;;;;;5089023;28;20039;-51
2021/01/02 13:23:56;;;;;;;40.10;19.33;;;;;;;;;;5088531;28;20406;-51
2021/01/02 13:26:22;;;;;;;32.65;16.80;;;;;;;;;;5085364;28;20032;-50
2021/01/02 13:28:48;;;;;;;36.95;19.42;;;;;;;;;;5087055;28;20028;-51
2021/01/02 13:31:14;;;;;;;33.95;18.02;;;;;;;;;;5086855;28;20497;-54
2021/01/02 13:33:40;;;;;;;35.72;18.23;;;;;;;;;;5087954;28;20028;-55
2021/01/02 13:36:07;;;;;;;30.75;15.98;;;;;;;;;;5086671;28;20035;-50
2021/01/02 13:38:33;;;;;;;23.02;11.93;;;;;;;;;;5084945;28;20017;-49
2021/01/02 13:40:59;;;;;;;29.52;14.75;;;;;;;;;;5086574;28;20035;-55
2021/01/02 13:43:26;;;;;;;33.83;16.30;;;;;;;;;;5087390;28;20028;-50
2021/01/02 13:45:52;;;;;;;40.85;18.23;;;;;;;;;;5086786;28;20028;-53
2021/01/02 13:48:18;;;;;;;40.38;18.42;;;;;;;;;;5086100;28;20109;-54
2021/01/02 13:50:44;;;;;;;33.70;15.77;;;;;;;;;;5085981;28;20091;-54
2021/01/02 13:53:11;;;;;;;39.33;19.88;;;;;;;;;;5087557;28;20132;-51
2021/01/02 13:55:37;;;;;;;35.45;18.15;;;;;;;;;;5086955;28;20255;-56
2021/01/02 13:58:03;;;;;;;28.40;14.20;;;;;;;;;;5085481;28;20025;-55
2021/01/02 14:00:29;;;;;;;32.28;16.35;;;;;;;;;;5085159;28;20130;-56
2021/01/02 14:02:56;;;;;;;31.48;15.02;;;;;;;;;;5082002;28;20039;-56
2021/01/02 14:05:22;;;;;;;31.38;15.63;;;;;;;;;;5086202;28;20086;-58
2021/01/02 14:07:48;;;;;;;30.08;16.23;;;;;;;;;;5084695;28;20031;-56
2021/01/02 14:10:14;;;;;;;32.53;16.35;;;;;;;;;;5086066;28;20040;-54
2021/01/02 14:12:40;;;;;;;27.30;14.00;;;;;;;;;;5086840;28;20028;-55
2021/01/02 14:15:07;;;;;;;30.67;14.73;;;;;;;;;;5085107;28;20032;-55
2021/01/02 14:17:34;;;;;;;27.92;13.55;;;;;;;;;;5085943;28;20023;-53
2021/01/02 14:20:00;;;;;;;28.13;14.07;;;;;;;;;;5085221;28;20115;-55
2021/01/02 14:22:26;;;;;;;31.35;16.10;;;;;;;;;;5085725;28;20054;-54
2021/01/02 14:24:52;;;;;;;37.15;17.33;;;;;;;;;;5084375;28;20024;-57
2021/01/02 14:27:19;;;;;;;33.83;16.52;;;;;;;;;;5083747;28;20145;-55